Tiempo atmosférico en la estación meteorológica de Llanes, Asturias (10 m.)



Fecha
DESCASC
Temp. máxima en grados centígrados (hora)
DESCASC
Temp. mínima en grados centígrados (hora)
DESCASC
Temp. media en grados centígrados
DESCASC
Racha de viento máxima en m/sg (hora)
DESCASC
Velocidad máxima media en intervalos de 10 minutos(hora)
DESCASC
Precipitaciones diarias en mm
DESCASC
Precipitaciones de 00:00 a 06:00 en mm
DESCASC
Precipitaciones de 06:00 a 12:00 en mm
DESCASC
Precipitaciones de 12:00 a 18:00 en mm
DESCASC
Precipitaciones de 18:00 a 24:00 en mm
DESCASC
05-04-2020 21.1 (13:40) 12.6 (01:20) 16.9 6.11 (06:10) 4.17 (06:10) 0.4 0 0 0 0.4
04-04-2020 18.2 (17:50) 6.7 (08:20) 12.5 5.56 (16:40) 4.17 (16:40) 0 0 0 0 0
03-04-2020 13.7 (15:30) 8.8 (23:59) 11.3 -- (--) -- (--) 0 0 0 0 0
02-04-2020 14.1 (13:20) 11.2 (00:00) 12.7 5.83 (23:00) 3.61 (14:10) 0 0 0 0 0
01-04-2020 13.9 (14:40) 8.4 (00:00) 11.1 -- (--) -- (--) 0 0 0 0 0
31-03-2020 10.6 (16:30) 3.6 (00:00) 7.1 -- (--) -- (--) 0.2 0 0.2 0 0
30-03-2020 9 (06:20) 4.8 (00:00) 6.9 -- (--) -- (--) 11.8 4.8 1.6 2 3.4
29-03-2020 15.6 (15:10) 6.8 (00:00) 11.2 11.11 (18:40) 8.89 (18:40) 1.4 0 0 0 1.4
28-03-2020 15.7 (15:50) 5.8 (00:00) 10.8 6.94 (17:50) 4.17 (13:40) 0 0 0 0 0
27-03-2020 13.7 (13:00) 5.2 (00:00) 9.4 12.78 (19:20) 8.61 (16:10) 0 0 0 0 0
26-03-2020 13.6 (13:50) 7.2 (00:00) 10.4 8.89 (16:40) 5.83 (14:10) 0 0 0 0 0
25-03-2020 15.6 (16:00) 8.1 (00:00) 11.9 5.28 (12:10) 3.61 (12:10) 0 0 0 0 0
24-03-2020 18.7 (14:50) 8.8 (00:00) 13.8 10.56 (16:40) 6.39 (16:40) 0 0 0 0 0
23-03-2020 13.9 (11:40) 12.1 (00:00) 13 11.67 (22:00) 8.06 (22:20) 0.2 0 0.2 0 0
22-03-2020 14.8 (16:00) 11.8 (00:00) 13.3 7.78 (11:40) 4.72 (13:00) 0 0 0 0 0
21-03-2020 13.1 (14:20) 10.1 (00:00) 11.6 5.56 (12:40) 3.61 (17:30) 0 0 0 0 0
20-03-2020 13.1 (15:20) 10.7 (00:00) 11.9 4.72 (12:00) 1.67 (19:40) 0.2 0.2 0 0 0
19-03-2020 12.8 (14:20) 10.8 (00:00) 11.8 3.33 (04:00) 1.94 (04:00) 0 0 0 0 0
18-03-2020 14.5 (14:40) 9.5 (00:00) 12 4.17 (00:30) 3.06 (00:30) 0 0 0 0 0
17-03-2020 14.7 (12:20) 9.8 (00:00) 12.3 8.61 (15:00) 6.11 (15:10) 0 0 0 0 0
16-03-2020 12.7 (15:00) 6.3 (00:00) 9.5 8.06 (15:20) 4.17 (09:40) 7.8 2.8 4.2 0.8 0
15-03-2020 16.4 (14:00) 6.5 (00:00) 11.4 14.72 (16:20) 9.72 (16:20) 10.8 0 0 3.8 7
14-03-2020 15.2 (15:20) 9.2 (00:00) 12.2 7.22 (20:10) 4.44 (18:20) 0 0 0 0 0
13-03-2020 12.7 (15:30) 9 (21:40) 10.8 9.72 (13:40) 6.39 (12:50) 4.6 3.8 0.8 0 0
12-03-2020 14 (12:30) 10.5 (00:00) 12.3 8.89 (14:00) 5.28 (21:20) 5.6 0 0 0.4 5.2
11-03-2020 16.2 (13:20) 8.5 (00:00) 12.4 8.61 (16:10) 5.28 (16:20) 0 0 0 0 0
10-03-2020 15.7 (15:10) 9.2 (00:00) 12.4 6.94 (18:00) 5 (18:00) 0 0 0 0 0
09-03-2020 14.7 (15:30) 10.8 (00:00) 12.8 12.78 (00:30) 6.39 (00:40) 0 0 0 0 0

Gráficas

Temp. máximas Temp. mínimas Temp. medias Precipitaciones Rachas de viento máximas Velocidades máximas media en intervalos de 10 minutos

Datos horarios

Fecha y hora oficial Temperatura (ºC) Velocidad del viento (km/h) Dirección del viento Racha (km/h) Dirección de racha Precipitación (mm) Presión (hPa) Tendencia (hPa) Humedad (%)
2020-04-07 23:00:00 13.4 2 Sudoeste 14 Oeste 0 1022.3 1.3 85
2020-04-07 22:00:00 13.4 -- -- -- -- 0 1022.2 1.4 84
2020-04-07 21:00:00 13.7 6 Sudeste 16 Este 0.2 1021.1 0.9 83
2020-04-07 20:00:00 14 3 Este 10 Sudeste 0 1021 0.9 81
2020-04-07 19:00:00 14.3 5 Este 12 Este 0 1020.8 0.5 80
2020-04-07 18:00:00 14.5 10 Este 17 Este 0 1020.2 -0.2 78
2020-04-07 17:00:00 15.3 10 Este 14 Nordeste 0 1020.1 -0.3 75
2020-04-07 16:00:00 16 7 Este 16 Este 0 1020.3 -0.5 74
2020-04-07 15:00:00 15.9 11 Este 17 Este 0 1020.4 -0.7 74
2020-04-07 14:00:00 15.9 12 Este 18 Este 0 1020.4 -0.6 74
2020-04-07 13:00:00 15.6 11 Este 15 Este 0 1020.8 -0.2 75
2020-04-07 12:00:00 14.5 8 Este -- -- 0 1021.1 0 78
2020-04-07 11:00:00 13.5 6 Sur -- -- 0 1021 0.3 81
2020-04-07 10:00:00 13 4 Sudeste -- -- 0 1021 0.2 83
2020-04-07 09:00:00 12.5 2 Este -- -- 0 1021.1 0.4 84
2020-04-07 08:00:00 12.2 -- -- -- -- 0 1020.7 -0.2 84
2020-04-07 07:00:00 12.2 0 Calma -- -- 0 1020.8 -0.3 84
2020-04-07 06:00:00 12.1 -- -- -- -- 0 1020.7 -0.7 84
2020-04-07 05:00:00 12.1 5 Sur -- -- 0 1020.9 -0.6 84
2020-04-07 04:00:00 12.1 -- -- -- -- 0 1021.1 -0.3 85
2020-04-07 03:00:00 12 8 Sudeste 18 Sudeste 0 1021.4 -0.2 86
2020-04-07 02:00:00 12.1 12 Sudeste -- -- 0 1021.5 -0.7 86
2020-04-07 01:00:00 12.3 -- -- -- -- 0 1021.4 -0.8 86
2020-04-07 00:00:00 12.2 -- -- -- -- 0 1021.6 -0.1 87
2020-04-06 23:00:00 12.3 17 Este 28 Este 0 1022.2 0.5 86
2020-04-06 22:00:00 12.3 14 Este 26 Este 0 1022.2 1 85
2020-04-06 21:00:00 12.2 18 Sudeste 27 Sudeste 0 1021.7 0.5 85
2020-04-06 20:00:00 12.5 -- -- -- -- 0 1021.7 0.5 85
2020-04-06 19:00:00 12.5 14 Este 25 Este 0.2 1021.2 -0.1 85
2020-04-06 18:00:00 12.8 13 Este 24 Este 0 1021.2 -0.1 85
2020-04-06 17:00:00 13 13 Este 21 Este 0.4 1021.2 0.4 85
2020-04-06 16:00:00 12.7 16 Este 22 Este 0 1021.3 0.5 85
2020-04-06 15:00:00 13.1 13 Este 17 Este 0.4 1021.3 0.7 86
2020-04-06 14:00:00 13.5 7 Este 11 Nordeste 0.8 1020.8 1.1 86
2020-04-06 13:00:00 12.2 8 Nordeste 17 Norte 2.2 1020.8 2.3 87
2020-04-06 12:00:00 12 5 Noroeste 23 Noroeste 2.6 1020.6 3.1 87
2020-04-06 11:00:00 12.6 8 Oeste 17 Oeste 1.4 1019.7 3.1 83
2020-04-06 10:00:00 13.3 10 Noroeste 16 Noroeste 0 1018.5 2.8 78
2020-04-06 09:00:00 13.5 2 Sur 9 Este 0 1017.5 2.1 75
2020-04-06 08:00:00 13.6 5 Oeste 15 Oeste 0 1016.6 1.8 76
2020-04-06 07:00:00 13.9 3 Oeste 8 Oeste 0 1015.7 1.2 79
2020-04-06 06:00:00 14 4 Noroeste 9 Oeste 0 1015.4 1.2 79
2020-04-06 05:00:00 14.1 5 Oeste 10 Oeste 0 1014.8 0.9 78
2020-04-06 04:00:00 14.3 2 Oeste 12 Oeste 0 1014.5 1.5 77
2020-04-06 03:00:00 14.3 6 Oeste 13 Oeste 0 1014.2 1.7 77
2020-04-06 02:00:00 14.8 7 Oeste 17 Noroeste 0 1013.9 2.1 73
2020-04-06 01:00:00 14.8 2 Sudoeste 15 Sudoeste 0 1013 2.8 71
2020-04-06 00:00:00 14.4 8 Sudoeste 13 Oeste 0 1012.5 2.5 73
2020-04-05 23:00:00 15.1 6 Oeste 12 Oeste 0 1011.8 2.6 71
2020-04-05 22:00:00 16 0 Calma 17 Sudoeste 0.2 1010.2 1.9 69
2020-04-05 21:00:00 16.2 6 Sur 19 Sudoeste 0.2 1010 2.3 67
2020-04-05 20:00:00 17.4 2 Noroeste 8 Sur 0 1009.2 1.4 51
2020-04-05 19:00:00 17.5 4 Sur 16 Este 0 1008.3 0.3 49
2020-04-05 18:00:00 18 4 Este 19 Este 0 1007.7 -0.6 44
2020-04-05 17:00:00 19.1 5 Sudeste 8 Sudeste 0 1007.8 -0.4 45
2020-04-05 16:00:00 19.1 5 Sudeste 20 Este 0 1008 -0.1 41
2020-04-05 15:00:00 19.8 2 Noroeste 16 Noroeste 0 1008.3 0.1 42
2020-04-05 14:00:00 19.8 7 Noroeste 18 Noroeste 0 1008.2 0 44
2020-04-05 13:00:00 20.4 6 Noroeste 13 Este 0 1008.1 0.2 38
2020-04-05 12:00:00 19.4 2 Noroeste 9 Noroeste 0 1008.2 0.6 47
2020-04-05 11:00:00 20.4 6 Noroeste 10 Noroeste 0 1008.2 1 52
2020-04-05 10:00:00 17.7 5 Oeste 14 Norte 0 1007.9 0.8 53
2020-04-05 09:00:00 14.2 3 Sur 16 Sudoeste 0 1007.6 0.9 54
2020-04-05 08:00:00 14.5 7 Sur 17 Noroeste 0 1007.2 0.6 51
2020-04-05 07:00:00 14.9 7 Oeste 22 Sudoeste 0 1007.1 0.2 49
2020-04-05 06:00:00 14.6 5 Oeste 15 Oeste 0 1006.7 -0.7 55
2020-04-05 05:00:00 15.6 6 Oeste 17 Sudoeste 0 1006.6 -1.3 48
2020-04-05 04:00:00 13.9 6 Oeste 17 Oeste 0 1006.9 -1.3 60
2020-04-05 03:00:00 13.4 5 Oeste 13 Sudoeste 0 1007.4 -0.8 65
2020-04-05 02:00:00 13.1 4 Sudoeste 17 Oeste 0 1007.9 -0.7 69
2020-04-05 01:00:00 12.8 3 Oeste 17 Oeste 0 1008.2 -0.5 69
2020-04-05 00:00:00 13.1 4 Noroeste 17 Sur 0 1008.2 -0.3 69
2020-04-04 23:00:00 13 5 Oeste 19 Oeste 0 1008.6 0.3 69
2020-04-04 22:00:00 13.4 5 Sudoeste 14 Oeste 0 1008.7 0.5 68
2020-04-04 21:00:00 14.3 3 Este 9 Sudeste 0 1008.5 0.2 66
2020-04-04 20:00:00 15.9 4 Oeste 8 Noroeste 0 1008.3 -0.8 58
2020-04-04 19:00:00 17.6 0 Calma 9 Norte 0 1008.2 -1.4 50
2020-04-04 18:00:00 18.1 2 Nordeste 12 Este 0 1008.3 -2.3 38
2020-04-04 17:00:00 16 11 Este 20 Este 0 1009.1 -1.8 58
2020-04-04 16:00:00 16.6 12 Este 17 Este 0 1009.6 -1.7 67
2020-04-04 15:00:00 16.5 9 Este 14 Este 0 1010.6 -1.3 65
2020-04-04 14:00:00 16.1 8 Este 12 Este 0 1010.9 -1.1 66
2020-04-04 13:00:00 14.7 3 Nordeste 8 Nordeste 0 1011.3 -0.7 69
2020-04-04 12:00:00 14.3 4 Norte 6 Norte 0 1011.9 -0.3 71
2020-04-04 11:00:00 13.3 4 Norte 9 Noroeste 0 1012 -0.3 75
2020-04-04 10:00:00 11.1 3 Este 8 Sudoeste 0 1012 -0.3 83
2020-04-04 09:00:00 7.8 2 Sudoeste 11 Sudoeste 0 1012.2 -0.4 85
2020-04-04 08:00:00 6.8 0 Calma 8 Sudoeste 0 1012.3 -0.4 84
2020-04-04 07:00:00 7.1 3 Sudoeste 14 Oeste 0 1012.3 -0.8 83
2020-04-04 06:00:00 7.4 10 Sudoeste 16 Sudoeste 0 1012.6 -1.3 83
2020-04-04 05:00:00 7.4 6 Sudoeste 12 Sudoeste 0 1012.7 -1.7 83
2020-04-04 04:00:00 7.8 9 Sudoeste 13 Sudoeste 0 1013.1 -1.4 82
2020-04-04 03:00:00 8 6 Oeste 13 Oeste 0 1013.9 -0.9 82
2020-04-04 02:00:00 8.1 11 Sudoeste 16 Sudoeste 0 1014.4 -0.5 81
2020-04-04 01:00:00 8.5 10 Sudoeste 16 Oeste 0 1014.5 -0.4 79
2020-04-04 00:00:00 8.8 9 Sudoeste 13 Sudoeste 0 1014.8 -0.1 78
2020-04-03 23:00:00 9.7 8 Sudoeste 13 Sudoeste 0 1014.9 -0.3 75
2020-04-03 22:00:00 10.9 8 Sudeste -- -- 0 1014.9 -0.5 73
2020-04-03 21:00:00 11.8 -- -- -- -- 0 1014.9 -0.9 73
2020-04-03 20:00:00 12.2 -- -- -- -- 0 1015.2 -0.9 70
2020-04-03 19:00:00 12.6 -- -- -- -- 0 1015.4 -1.2 66
2020-04-03 18:00:00 13 -- -- -- -- 0 1015.8 -1.2 61
2020-04-03 17:00:00 13.3 -- -- -- -- 0 1016.1 -1.7 60
2020-04-03 16:00:00 13.6 -- -- -- -- 0 1016.6 -2 56
2020-04-03 15:00:00 13.6 -- -- -- -- 0 1017 -1.6 58
2020-04-03 14:00:00 13.5 -- -- -- -- 0 1017.8 -0.8 56
2020-04-03 13:00:00 13.3 -- -- -- -- 0 1018.6 0.3 58
2020-04-03 12:00:00 12.9 24 Este 31 Este 0 1018.6 0.3 64
2020-04-03 11:00:00 12 16 Este 22 Este 0 1018.6 0.7 65
2020-04-03 10:00:00 11.7 8 Sudeste 18 Este 0 1018.3 0.5 68
2020-04-03 09:00:00 10.1 6 Sur 12 Sudeste 0 1018.3 0.4 71
2020-04-03 08:00:00 10.1 6 Sur -- -- 0 1017.9 -0.4 71
2020-04-03 07:00:00 10.1 4 Sur 7 Sur 0 1017.8 -0.7 71
2020-04-03 06:00:00 10.2 3 Sur 8 Sudoeste 0 1017.9 -1.2 71
2020-04-03 05:00:00 10.4 5 Sur 10 Sur 0 1018.3 -1 72
2020-04-03 04:00:00 10.6 5 Nordeste 10 Nordeste 0 1018.5 -0.8 69
2020-04-03 03:00:00 10.8 4 Sudoeste 8 Noroeste 0 1019.1 -0.3 70
2020-04-03 02:00:00 10.9 4 Oeste 13 Norte 0 1019.3 0 68
2020-04-03 01:00:00 11.1 5 Norte 13 Noroeste 0 1019.3 0.2 69
2020-04-03 00:00:00 11.2 6 Norte 15 Norte 0 1019.4 1 69
2020-04-02 23:00:00 11.4 9 Nordeste 21 Nordeste 0 1019.3 1.3 70
2020-04-02 22:00:00 11.8 7 Norte 16 Noroeste 0 1019.1 1.6 69
2020-04-02 21:00:00 11.8 7 Noroeste 17 Norte 0 1018.4 1 61
2020-04-02 20:00:00 12.2 6 Noroeste 13 Noroeste 0 1018 0.9 59
2020-04-02 19:00:00 12.5 6 Noroeste 19 Norte 0 1017.5 0.5 58
2020-04-02 18:00:00 12.6 5 Norte 12 Norte 0 1017.4 0.4 59
2020-04-02 17:00:00 12.8 4 Norte 18 Norte 0 1017.1 0.2 60
2020-04-02 16:00:00 13.4 8 Nordeste 17 Nordeste 0 1017 0.1 65
2020-04-02 15:00:00 13.9 7 Nordeste 19 Norte 0 1017 0.5 69
2020-04-02 14:00:00 13.5 12 Nordeste 18 Nordeste 0 1016.9 1.2 72
2020-04-02 13:00:00 13.5 4 Norte 10 Nordeste 0 1016.9 2.1 78
2020-04-02 12:00:00 13 6 Nordeste 18 Norte 0 1016.5 2.3 80
2020-04-02 11:00:00 12.9 5 Norte 11 Noroeste 0 1015.7 2.2 84
2020-04-02 10:00:00 12.4 5 Oeste 13 Oeste 0 1014.8 1.7 86
2020-04-02 09:00:00 12 7 Oeste 16 Noroeste 0 1014.2 1.4 85
2020-04-02 08:00:00 11.9 9 Oeste 14 Oeste 0 1013.5 0.6 85
2020-04-02 07:00:00 11.7 6 Sudoeste 12 Noroeste 0 1013.1 0.2 85
2020-04-02 06:00:00 11.8 6 Oeste 11 Oeste 0 1012.8 -0.3 85
2020-04-02 05:00:00 11.7 5 Oeste 11 Sudoeste 0 1012.9 -0.4 85
2020-04-02 04:00:00 11.8 6 Oeste 10 Oeste 0 1012.9 -0.3 85
2020-04-02 03:00:00 12 5 Oeste 15 Oeste 0 1013.1 -0.1 85
2020-04-02 02:00:00 11.9 6 Sudoeste 12 Sudoeste 0 1013.3 0.5 85
2020-04-02 01:00:00 12.1 5 Sudoeste 12 Sudoeste 0 1013.2 0.6 84
2020-04-02 00:00:00 12.5 4 Noroeste 12 Nordeste 0 1013.2 1.5 83
2020-04-01 23:00:00 12.5 6 Sudoeste 15 Oeste 0 1012.8 1.4 82
2020-04-01 22:00:00 12.6 5 Noroeste 17 Oeste 0 1012.6 1.7 81
2020-04-01 21:00:00 13 7 Noroeste 14 Oeste 0 1011.7 1 81
2020-04-01 20:00:00 13.2 8 Noroeste 30 Noroeste 0 1011.4 0.7 80
2020-04-01 19:00:00 13.1 13 Noroeste 30 Noroeste 0 1010.9 0.1 79
2020-04-01 18:00:00 13.4 15 Noroeste 23 Noroeste 0 1010.7 0 78
2020-04-01 17:00:00 13.4 15 Noroeste 24 Noroeste 0 1010.7 -0.2 76
2020-04-01 16:00:00 13.1 16 Noroeste 33 Noroeste 0 1010.8 0 77
2020-04-01 15:00:00 13.6 17 Noroeste 24 Noroeste 0 1010.7 0 73
2020-04-01 14:00:00 13.5 14 Noroeste 26 Oeste 0 1010.9 0.3 71
2020-04-01 13:00:00 12.8 14 Noroeste 31 Noroeste 0 1010.8 0.7 75
2020-04-01 12:00:00 12.8 16 Noroeste 22 Noroeste 0 1010.7 1.4 71
2020-04-01 11:00:00 11.9 8 Oeste 16 Oeste 0 1010.6 1.4 71
2020-04-01 10:00:00 10.3 5 Sudoeste 19 Oeste 0 1010.1 1.4 76
2020-04-01 09:00:00 9 6 Oeste 23 Oeste 0 1009.3 0.7 78
2020-04-01 08:00:00 8.4 8 Sudoeste 22 Oeste 0 1009.2 0.9 78
2020-04-01 07:00:00 8.8 5 Oeste 23 Oeste 0 1008.7 0.2 77
2020-04-01 06:00:00 9.1 7 Sudoeste 27 Oeste 0 1008.6 -0.3 77
2020-04-01 05:00:00 10.1 8 Oeste -- -- 0 1008.3 -0.8 75
2020-04-01 04:00:00 11.1 -- -- -- -- 0 1008.5 -1.2 80
2020-04-01 03:00:00 10.4 -- -- -- -- 0 1008.9 -1 77
2020-04-01 02:00:00 10.3 -- -- -- -- 0 1009.1 -1 78
2020-04-01 01:00:00 9.6 17 Sudeste -- -- 0 1009.7 -0.2 79
2020-04-01 00:00:00 9.7 -- -- -- -- 0 1009.9 0.6 80
2020-03-31 23:00:00 9.5 -- -- -- -- 0 1010.1 0.9 81
2020-03-31 22:00:00 9.8 -- -- -- -- 0 1009.9 0.6 80
2020-03-31 21:00:00 9.9 -- -- -- -- 0 1009.3 -0.2 80
2020-03-31 20:00:00 10.1 -- -- -- -- 0 1009.2 -0.6 80
2020-03-31 19:00:00 10 -- -- -- -- 0 1009.3 -0.6 80
2020-03-31 18:00:00 10 -- -- -- -- 0 1009.5 -0.9 79
2020-03-31 17:00:00 10 -- -- -- -- 0 1009.8 -1.2 77
2020-03-31 16:00:00 10.4 -- -- -- -- 0 1009.9 -1.6 73
2020-03-31 15:00:00 9.9 -- -- -- -- 0 1010.4 -1.5 68
2020-03-31 14:00:00 10.1 -- -- -- -- 0 1011 -1.2 66
2020-03-31 13:00:00 9.1 -- -- -- -- 0 1011.5 -0.6 68
2020-03-31 12:00:00 8.4 -- -- -- -- 0 1011.9 -0.6 69
2020-03-31 11:00:00 7.8 -- -- -- -- 0 1012.2 -0.2 69
2020-03-31 10:00:00 6.6 -- -- -- -- 0 1012.1 -0.2 73
2020-03-31 09:00:00 5.5 16 Sudeste -- -- 0.2 1012.5 0.1 76
2020-03-31 08:00:00 4.7 9 Sudeste 20 Sudeste 0 1012.4 -0.5 81
2020-03-31 07:00:00 4.7 5 Sudeste 12 Sudoeste 0 1012.3 -1.2 84
2020-03-31 06:00:00 3.7 9 Sudoeste 13 Oeste 0 1012.4 -2.3 85
2020-03-31 05:00:00 3.6 9 Sudoeste 15 Sudoeste 0 1012.9 -2.7 85
2020-03-31 04:00:00 4.4 6 Oeste 13 Sudoeste 0 1013.5 -2.8 84
2020-03-31 03:00:00 4.8 6 Sudoeste 15 Oeste 0 1014.7 -2.3 83
2020-03-31 02:00:00 5 2 Sudoeste 13 Oeste 0 1015.6 -1.9 81
2020-03-31 01:00:00 5.2 7 Sur 18 Sudeste 0 1016.3 -1.7 82
2020-03-31 00:00:00 5.7 7 Sudoeste -- -- 0 1017 -1.2 82
2020-03-30 23:00:00 5.3 4 Oeste 22 Sudoeste 0.4 1017.5 -0.6 82
2020-03-30 22:00:00 5.3 6 Sudoeste 14 Sur 1.4 1018 -0.6 81
2020-03-30 21:00:00 5.6 8 Sudoeste -- -- 0.4 1018.2 -0.8 80
2020-03-30 20:00:00 6 -- -- -- -- 0 1018.1 -1.7 79
2020-03-30 19:00:00 5.3 8 Sudoeste -- -- 1.2 1018.6 -1.2 78
2020-03-30 18:00:00 6.5 -- -- -- -- 0 1019 -1.7 73
2020-03-30 17:00:00 6.3 30 Nordeste 57 Nordeste 0 1019.8 -1.5 72
2020-03-30 16:00:00 6.8 -- -- -- -- 0.2 1019.8 -1.8 77
2020-03-30 15:00:00 6 9 Nordeste 34 Este 1 1020.7 -1.5 71
2020-03-30 14:00:00 7.2 8 Sudeste -- -- 0.4 1021.3 -1 71
2020-03-30 13:00:00 6.1 -- -- -- -- 0.4 1021.6 -0.5 72
2020-03-30 12:00:00 5.5 -- -- -- -- 0 1022.2 0 73
2020-03-30 11:00:00 5.9 16 Este 66 Nordeste 0.8 1022.3 0.1 78
2020-03-30 10:00:00 6.3 5 Sur -- -- 0.2 1022.1 0.4 73
2020-03-30 09:00:00 6.3 -- -- -- -- 0.4 1022.2 0.2 75
2020-03-30 08:00:00 6.9 40 Nordeste 60 Nordeste 0 1022.2 -0.3 74
2020-03-30 07:00:00 8.4 28 Nordeste 50 Nordeste 0.2 1021.7 -1.2 66
2020-03-30 06:00:00 8.5 27 Este 47 Este 0 1022 -1.8 68
2020-03-30 05:00:00 7.3 10 Sudeste 21 Sudeste 0.8 1022.5 -1.7 73
2020-03-30 04:00:00 6.8 10 Sur 23 Sur 0.2 1022.9 -1.4 78
2020-03-30 03:00:00 7 10 Sur 31 Sudeste 0.6 1023.8 -0.3 81
2020-03-30 02:00:00 7.8 21 Este -- -- 1.8 1024.2 -0.1 82
2020-03-30 01:00:00 8 13 Sudeste 45 Nordeste 1.4 1024.3 0.1 83
2020-03-30 00:00:00 8 13 Sur 26 Sur 0.2 1024.1 0.5 82
2020-03-29 23:00:00 8.4 12 Sur 37 Este 0.6 1024.3 1.3 83
2020-03-29 22:00:00 8.8 24 Este 38 Este 0.4 1024.2 1.9 82
2020-03-29 21:00:00 9.5 24 Este 39 Este 0.2 1023.6 1.6 81
2020-03-29 20:00:00 10.1 28 Este 40 Este 0 1023 1.5 79
2020-03-29 19:00:00 10.6 28 Este 40 Este 0 1022.3 0.9 80
2020-03-29 18:00:00 11.8 26 Este 39 Este 0 1022 0.6 78
2020-03-29 17:00:00 13.7 18 Nordeste 36 Este 0 1021.5 -0.2 71
2020-03-29 16:00:00 14.1 16 Nordeste 24 Nordeste 0 1021.4 -0.4 62
2020-03-29 15:00:00 15.4 6 Este 15 Nordeste 0 1021.4 -0.4 62
2020-03-29 14:00:00 14.1 9 Nordeste 17 Nordeste 0 1021.7 0.1 66
2020-03-29 13:00:00 13.9 9 Nordeste 15 Nordeste 0 1021.8 0.5 67
2020-03-29 12:00:00 14 5 Este 8 Este 0 1021.8 0.8 70
2020-03-29 11:00:00 12.8 4 Nordeste 7 Nordeste 0 1021.6 1 75
2020-03-29 10:00:00 9.9 5 Sudoeste 10 Oeste 0 1021.3 1 80
2020-03-29 09:00:00 7.7 6 Oeste 12 Oeste 0 1021 0.9 81
2020-03-29 08:00:00 7.6 4 Oeste 15 Sudoeste 0 1020.6 0.5 81
2020-03-29 07:00:00 7 9 Sudoeste 14 Oeste 0 1020.3 0 82
2020-03-29 06:00:00 7 6 Oeste 13 Sudoeste 0 1020.1 -0.6 80
2020-03-29 05:00:00 7.8 10 Sudoeste 21 Oeste 0 1020.1 -0.7 80
2020-03-29 03:00:00 8.2 8 Oeste 14 Oeste 0 1020.7 0.1 80
2020-03-29 01:00:00 8.7 5 Sudoeste 9 Sudoeste 0 1020.8 0.2 78
2020-03-29 00:00:00 9.2 3 Noroeste 7 Sudoeste 0 1020.7 0.4 77
2020-03-28 23:00:00 10.2 2 Sur 8 Sudoeste 0 1020.6 1.2 77
2020-03-28 22:00:00 9.9 3 Oeste 9 Sudoeste 0 1020.6 1.6 76
2020-03-28 21:00:00 11.2 3 Sudoeste 8 Sudeste 0 1020.3 1.8 74
2020-03-28 20:00:00 12.4 4 Sudeste 21 Este 0 1019.4 1.2 71
2020-03-28 19:00:00 13.6 11 Este 20 Sudeste 0 1019 0.7 69
2020-03-28 18:00:00 14.7 12 Sudeste 25 Este 0 1018.5 0 65
2020-03-28 17:00:00 15.3 12 Este 17 Este 0 1018.2 -0.6 62
2020-03-28 16:00:00 15.6 11 Este 15 Este 0 1018.3 -0.4 59
2020-03-28 15:00:00 15.3 10 Este 16 Este 0 1018.5 -0.3 62
2020-03-28 14:00:00 14.7 11 Este 19 Nordeste 0 1018.8 0 62
2020-03-28 13:00:00 14.1 7 Nordeste 13 Nordeste 0 1018.7 0.1 60
2020-03-28 12:00:00 13.5 5 Norte 10 Nordeste 0 1018.8 0.9 64
2020-03-28 11:00:00 13.1 5 Norte 11 Noroeste 0 1018.8 1.4 65
2020-03-28 10:00:00 12.2 7 Noroeste 12 Noroeste 0 1018.6 1.7 68
2020-03-28 09:00:00 9.5 6 Oeste 13 Oeste 0 1017.9 1.4 74
2020-03-28 08:00:00 6.7 10 Sudoeste 14 Sudoeste 0 1017.4 1.2 77
2020-03-28 07:00:00 5.9 10 Sudoeste 14 Sudoeste 0 1016.9 0.9 77
2020-03-28 06:00:00 6.9 11 Sudoeste 15 Sudoeste 0 1016.5 0.4 76
2020-03-28 05:00:00 6.5 12 Sudoeste 17 Oeste 0 1016.2 0.2 78
2020-03-28 04:00:00 6.3 13 Sudoeste 16 Sudoeste 0 1016 0.1 77
2020-03-28 03:00:00 6.8 12 Sudoeste 24 Sudoeste 0 1016.1 0.2 75
2020-03-28 02:00:00 7.1 11 Sudoeste 15 Sudoeste 0 1016 0.1 74
2020-03-28 01:00:00 7.4 9 Sudoeste 14 Sudoeste 0 1015.9 0.3 72
2020-03-28 00:00:00 8.7 3 Sur 13 Sur 0 1015.9 0.8 69
2020-03-27 23:00:00 9.3 7 Sudeste 18 Sudeste 0 1015.9 1.5 67
2020-03-27 22:00:00 10.3 11 Sudeste 34 Sudeste 0 1015.6 1.7 65
2020-03-27 21:00:00 10.8 14 Sudeste 36 Este 0 1015.1 1.6 64
2020-03-27 20:00:00 11.9 27 Sudeste 46 Sudeste 0 1014.4 1.1 65
2020-03-27 19:00:00 12.2 29 Este 44 Este 0 1013.9 0.4 62
2020-03-27 18:00:00 12.9 26 Sudeste 41 Este 0 1013.5 0.1 64
2020-03-27 17:00:00 12.7 25 Este 46 Sudeste 0 1013.3 -0.6 61
2020-03-27 16:00:00 13.1 27 Este 38 Este 0 1013.5 -0.8 60
2020-03-27 15:00:00 13.2 24 Este 40 Este 0 1013.4 -1.3 59
2020-03-27 14:00:00 13 24 Este 34 Este 0 1013.9 -0.8 55
2020-03-27 13:00:00 13.7 19 Este 31 Este 0 1014.3 -0.2 53
2020-03-27 12:00:00 12.5 24 Este 34 Este 0 1014.7 0.2 51
2020-03-27 11:00:00 12.2 23 Este 30 Este 0 1014.7 0.5 50
2020-03-27 10:00:00 11.9 19 Este 27 Este 0 1014.5 0.7 52
2020-03-27 09:00:00 10.3 12 Sudeste 19 Sudeste 0 1014.5 1 49
2020-03-27 08:00:00 5.6 0 Calma 13 Oeste 0 1014.2 0.8 66
2020-03-27 07:00:00 5.5 5 Oeste 11 Sur 0 1013.8 0.4 66
2020-03-27 06:00:00 6.9 4 Sur 14 Sur 0 1013.5 0 61
2020-03-27 05:00:00 7.3 5 Sur 12 Sur 0 1013.4 -0.3 61
2020-03-27 04:00:00 7.6 6 Sur 13 Sur 0 1013.4 -0.5 61
2020-03-27 03:00:00 8.1 4 Sur 10 Sur 0 1013.5 -0.6 63
2020-03-27 02:00:00 8.5 5 Sudoeste 9 Sudoeste 0 1013.7 -0.6 60
2020-03-27 01:00:00 9.3 3 Sudoeste 12 Sur 0 1013.9 -0.5 56
2020-03-27 00:00:00 9.9 7 Sudeste 19 Sudeste 0 1014.1 -0.4 53
2020-03-26 23:00:00 10.2 12 Nordeste 20 Nordeste 0 1014.3 0.2 54
2020-03-26 22:00:00 10.3 13 Nordeste 22 Nordeste 0 1014.4 0.8 52
2020-03-26 21:00:00 10.6 8 Nordeste 26 Nordeste 0 1014.5 1.3 53
2020-03-26 20:00:00 10.8 13 Nordeste 29 Nordeste 0 1014.1 1.1 55
2020-03-26 19:00:00 11.5 13 Nordeste 31 Noroeste 0 1013.6 0.4 56
2020-03-26 18:00:00 12.4 14 Noroeste 32 Oeste 0 1013.2 -0.3 60
2020-03-26 17:00:00 12.3 21 Noroeste 32 Noroeste 0 1013 -0.9 57
2020-03-26 16:00:00 12.5 17 Noroeste 28 Noroeste 0 1013.2 -1.4 56
2020-03-26 15:00:00 12.2 20 Noroeste 31 Noroeste 0 1013.5 -1.5 56
2020-03-26 14:00:00 13.1 18 Noroeste 29 Noroeste 0 1013.9 -1.2 57
2020-03-26 13:00:00 13.2 17 Noroeste 30 Noroeste 0 1014.6 -0.4 57
2020-03-26 12:00:00 12.9 15 Noroeste 30 Noroeste 0 1015 0.1 56
2020-03-26 11:00:00 11.6 12 Oeste 28 Oeste 0 1015.1 0.2 58
2020-03-26 10:00:00 11 15 Oeste 30 Oeste 0 1015 0.6 59
2020-03-26 09:00:00 9.7 10 Oeste 18 Oeste 0 1014.9 0.6 69
2020-03-26 08:00:00 7.6 5 Oeste 18 Sudoeste 0 1014.9 0.5 75
2020-03-26 07:00:00 7.3 6 Oeste 11 Sudoeste 0 1014.4 -0.4 76
2020-03-26 06:00:00 7.9 4 Oeste 12 Sudoeste 0 1014.3 -0.8 75
2020-03-26 05:00:00 8.5 5 Sudoeste 11 Sudoeste 0 1014.4 -1.3 77
2020-03-26 04:00:00 8.5 7 Sudoeste 12 Sudoeste 0 1014.8 -0.9 77
2020-03-26 03:00:00 8.7 8 Sudoeste 13 Sudoeste 0 1015.1 -1.1 76
2020-03-26 02:00:00 9.2 8 Sudoeste 12 Sudoeste 0 1015.7 -0.3 76
2020-03-26 01:00:00 10.2 7 Sudoeste 15 Nordeste 0 1015.7 -0.7 73
2020-03-26 00:00:00 11 6 Nordeste 14 Nordeste 0 1016.2 0.6 66
2020-03-25 23:00:00 11.1 4 Norte 15 Nordeste 0 1016 0.8 64
2020-03-25 22:00:00 11.5 11 Nordeste 19 Nordeste 0 1016.4 1.2 66
2020-03-25 21:00:00 11.4 6 Sudoeste 12 Noroeste 0 1015.6 0.8 71
2020-03-25 20:00:00 12.1 4 Norte 11 Nordeste 0 1015.2 0.1 67
2020-03-25 19:00:00 13.1 7 Nordeste 13 Nordeste 0 1015.2 0.1 66
2020-03-25 18:00:00 14.6 5 Norte 14 Nordeste 0 1014.8 -0.5 66
2020-03-25 17:00:00 14.6 6 Nordeste 16 Noroeste 0 1015.1 -0.5 69
2020-03-25 16:00:00 15.6 9 Noroeste 15 Norte 0 1015.1 -0.5 70
2020-03-25 15:00:00 15.1 7 Norte 11 Noroeste 0 1015.3 -0.5 73
2020-03-25 14:00:00 14.1 4 Nordeste 14 Noroeste 0 1015.6 -0.2 77
2020-03-25 13:00:00 14.3 9 Noroeste 19 Noroeste 0 1015.6 0.1 78
2020-03-25 12:00:00 14.1 12 Noroeste 18 Noroeste 0 1015.8 0.4 79
2020-03-25 11:00:00 13.9 9 Noroeste 17 Oeste 0 1015.8 0.4 79
2020-03-25 10:00:00 13.4 5 Noroeste 9 Noroeste 0 1015.5 0.7 79
2020-03-25 09:00:00 10.7 7 Sudoeste 12 Oeste 0 1015.4 0.7 81
2020-03-25 08:00:00 8.7 9 Sudoeste 13 Sur 0 1015.4 0.9 81
2020-03-25 07:00:00 8.1 10 Oeste 15 Sudoeste 0 1014.8 0.3 82
2020-03-25 06:00:00 8.2 9 Sudoeste 14 Oeste 0 1014.7 -0.3 82
2020-03-25 05:00:00 8.7 8 Oeste 16 Sudoeste 0 1014.5 -0.7 82
2020-03-25 04:00:00 8.7 11 Sudoeste 14 Sudoeste 0 1014.5 -0.8 83
2020-03-25 03:00:00 8.8 9 Sudoeste 13 Oeste 0 1015 -0.6 84
2020-03-25 02:00:00 9.5 6 Oeste 13 Oeste 0 1015.2 -0.8 83
2020-03-25 01:00:00 10.3 10 Sudoeste 15 Oeste 0 1015.3 -0.7 85
2020-03-25 00:00:00 11 7 Oeste 15 Sudeste 0 1015.6 0.1 83
2020-03-24 23:00:00 12.9 12 Sudeste 31 Este 0 1016 1 84
2020-03-24 22:00:00 13.1 11 Sudeste 24 Este 0 1016 0.8 84
2020-03-24 21:00:00 13.5 19 Sudeste 32 Este 0 1015.5 0.3 83
2020-03-24 20:00:00 13.9 16 Este 32 Este 0 1015 -0.4 80
2020-03-24 19:00:00 14.5 17 Este 28 Este 0 1015.2 -0.2 77
2020-03-24 18:00:00 15.6 19 Este 34 Este 0 1015.2 -0.3 72
2020-03-24 17:00:00 16.3 22 Sudeste 38 Este 0 1015.4 -0.5 67
2020-03-24 16:00:00 17.5 19 Sudeste 33 Sudeste 0 1015.4 -1.4 61
2020-03-24 15:00:00 18.3 18 Este 25 Este 0 1015.5 -1.8 64
2020-03-24 14:00:00 16.8 17 Este 24 Este 0 1015.9 -1.3 68
2020-03-24 13:00:00 15.3 12 Este 19 Sudeste 0 1016.8 -0.6 75
2020-03-24 12:00:00 14.9 10 Este 15 Este 0 1017.3 -0.1 78
2020-03-24 11:00:00 13.8 5 Norte 10 Noroeste 0 1017.2 -0.1 80
2020-03-24 10:00:00 13.3 3 Norte 10 Sudoeste 0 1017.4 0.6 82
2020-03-24 09:00:00 11.1 6 Oeste 14 Oeste 0 1017.4 0.7 86
2020-03-24 08:00:00 9.4 9 Oeste 14 Sudoeste 0 1017.3 0.7 87
2020-03-24 07:00:00 9.3 9 Sudoeste 12 Sudoeste 0 1016.8 0.1 86
2020-03-24 06:00:00 9.7 8 Oeste 14 Sudoeste 0 1016.7 -0.3 86
2020-03-24 05:00:00 9.8 9 Sudoeste 14 Sudoeste 0 1016.6 -0.5 85
2020-03-24 04:00:00 10.5 8 Oeste 11 Sudoeste 0 1016.7 -0.5 85
2020-03-24 03:00:00 11.4 9 Sudoeste 14 Sudoeste 0 1017 -0.3 84
2020-03-24 02:00:00 11.7 0 Calma 7 Sudoeste 0 1017.1 -0.4 83
2020-03-24 01:00:00 12.1 4 Sur 10 Sudeste 0 1017.2 -0.3 83
2020-03-24 00:00:00 13 8 Sudeste 35 Este 0 1017.3 0 83
2020-03-23 23:00:00 13.2 26 Este 41 Este 0 1017.5 0.3 84
2020-03-23 22:00:00 13.1 24 Este 42 Sudeste 0 1017.5 0.4 82
2020-03-23 21:00:00 13.1 25 Este 32 Este 0 1017.3 0.3 82
2020-03-23 20:00:00 13 22 Este 29 Este 0 1017.2 0.4 82
2020-03-23 19:00:00 13 16 Este 25 Este 0 1017.1 0.3 81
2020-03-23 18:00:00 13 14 Este 21 Este 0 1017 0.1 81
2020-03-23 17:00:00 13 15 Este 21 Este 0 1016.8 -0.3 80
2020-03-23 16:00:00 13.1 14 Este 23 Este 0 1016.8 -0.8 80
2020-03-23 15:00:00 13.2 18 Este 25 Este 0 1016.9 -0.9 79
2020-03-23 14:00:00 13.4 20 Este 27 Este 0 1017.1 -0.9 78
2020-03-23 13:00:00 13.4 16 Este 23 Sudeste 0 1017.6 -0.4 79
2020-03-23 12:00:00 13.8 12 Este 16 Este 0 1017.8 0.3 79
2020-03-23 11:00:00 13.1 11 Este 16 Este 0 1018 0.9 80
2020-03-23 10:00:00 13 6 Este 11 Este 0 1018 1.3 83
2020-03-23 09:00:00 12.4 5 Sudeste 15 Este 0 1017.5 1.2 84
2020-03-23 08:00:00 12.2 4 Sudeste 19 Este 0.2 1017.1 1.2 85
2020-03-23 07:00:00 12.3 6 Sudeste 15 Este 0 1016.7 1 84
2020-03-23 06:00:00 12.3 12 Este 15 Este 0 1016.3 0.3 84
2020-03-23 05:00:00 12.2 4 Sur 13 Sudeste 0 1015.9 -0.3 85
2020-03-23 04:00:00 12.4 9 Este 15 Este 0 1015.7 -0.5 84
2020-03-23 03:00:00 12.5 8 Nordeste 13 Este 0 1016 -0.3 84
2020-03-23 02:00:00 12.6 3 Este 9 Nordeste 0 1016.2 0.1 83
2020-03-23 01:00:00 12.6 3 Nordeste 10 Nordeste 0 1016.2 0.4 83
2020-03-23 00:00:00 12.7 8 Nordeste 14 Nordeste 0 1016.3 1 83
2020-03-22 23:00:00 12.8 9 Nordeste 16 Nordeste 0 1016.1 1.5 84
2020-03-22 22:00:00 12.8 10 Nordeste 16 Este 0 1015.8 1.6 84
2020-03-22 21:00:00 13 8 Nordeste 14 Nordeste 0 1015.3 1.6 84
2020-03-22 20:00:00 13.3 7 Nordeste 15 Nordeste 0 1014.6 1.3 84
2020-03-22 19:00:00 13.6 7 Noroeste 12 Noroeste 0 1014.2 1.1 82
2020-03-22 18:00:00 13.8 9 Noroeste 15 Noroeste 0 1013.7 0.5 81
2020-03-22 17:00:00 14 11 Noroeste 21 Noroeste 0 1013.3 0.1 80
2020-03-22 16:00:00 14.5 13 Noroeste 19 Noroeste 0 1013.1 -0.2 77
2020-03-22 15:00:00 14.3 12 Noroeste 20 Noroeste 0 1013.2 -0.1 77
2020-03-22 14:00:00 14.4 11 Noroeste 24 Noroeste 0 1013.2 0.2 77
2020-03-22 13:00:00 14.2 17 Noroeste 24 Noroeste 0 1013.3 0.5 78
2020-03-22 12:00:00 14.1 16 Noroeste 28 Noroeste 0 1013.3 0.9 76
2020-03-22 11:00:00 14.2 16 Noroeste 21 Noroeste 0 1013 0.8 76
2020-03-22 10:00:00 13.9 11 Noroeste 15 Noroeste 0 1012.8 1 76
2020-03-22 09:00:00 12.7 3 Oeste 10 Oeste 0 1012.4 1 80
2020-03-22 08:00:00 12 6 Oeste 10 Oeste 0 1012.2 1.3 81
2020-03-22 07:00:00 12 4 Oeste 14 Oeste 0 1011.8 0.9 81
2020-03-22 06:00:00 12 5 Oeste 12 Sudoeste 0 1011.4 0.4 82
2020-03-22 05:00:00 11.9 5 Sudoeste 15 Oeste 0 1010.9 0 82
2020-03-22 04:00:00 12 3 Oeste 9 Oeste 0 1010.9 -0.1 83
2020-03-22 03:00:00 12 5 Oeste 8 Oeste 0 1011 -0.1 83
2020-03-22 02:00:00 11.8 4 Sudoeste 17 Sudoeste 0 1010.9 0.2 83
2020-03-22 01:00:00 11.8 4 Sudoeste 10 Oeste 0 1011 0.5 83
2020-03-22 00:00:00 11.8 4 Oeste 8 Sudoeste 0 1011.1 0.9 83
2020-03-21 23:00:00 11.8 3 Oeste 13 Oeste 0 1010.7 0.9 83
2020-03-21 22:00:00 11.8 5 Oeste 10 Oeste 0 1010.5 1.4 83
2020-03-21 21:00:00 11.9 4 Oeste 11 Oeste 0 1010.2 1.8 83
2020-03-21 20:00:00 12 6 Oeste 13 Noroeste 0 1009.8 1.3 83
2020-03-21 19:00:00 11.9 9 Noroeste 16 Noroeste 0 1009.1 0.5 84
2020-03-21 18:00:00 12.3 11 Noroeste 18 Noroeste 0 1008.4 -0.2 84
2020-03-21 17:00:00 12.4 10 Noroeste 20 Oeste 0 1008.5 -0.4 84
2020-03-21 16:00:00 12.6 7 Noroeste 13 Noroeste 0 1008.6 -0.6 84
2020-03-21 15:00:00 12.8 4 Norte 11 Noroeste 0 1008.6 -0.7 84
2020-03-21 14:00:00 12.8 3 Noroeste 10 Nordeste 0 1008.9 -0.6 86
2020-03-21 13:00:00 12.4 4 Norte 20 Norte 0 1009.2 -0.3 87
2020-03-21 12:00:00 12.1 8 Noroeste 12 Noroeste 0 1009.3 0.1 88
2020-03-21 11:00:00 11.6 0 Calma 16 Este 0 1009.5 0 90
2020-03-21 10:00:00 11.4 3 Este 18 Sudeste 0 1009.5 0 90
2020-03-21 09:00:00 10.6 3 Sur 11 Sur 0 1009.2 -0.5 90
2020-03-21 08:00:00 10.4 6 Sur 10 Sur 0 1009.5 -0.3 90
2020-03-21 07:00:00 10.4 5 Sudoeste 12 Oeste 0 1009.5 -0.3 90
2020-03-21 06:00:00 10.3 5 Sudoeste 12 Sudoeste 0 1009.7 -0.7 90
2020-03-21 05:00:00 10.3 6 Sudoeste 12 Sudoeste 0 1009.8 -1 90
2020-03-21 04:00:00 10.4 5 Sudoeste 10 Oeste 0 1009.8 -1.1 89
2020-03-21 03:00:00 10.6 5 Oeste 13 Oeste 0 1010.4 -0.8 89
2020-03-21 02:00:00 10.7 4 Oeste 12 Sudoeste 0 1010.8 -0.7 89
2020-03-21 01:00:00 11.1 5 Sur 11 Este 0 1010.9 -0.6 88
2020-03-21 00:00:00 11.4 2 Noroeste 9 Oeste 0 1011.2 -0.2 87
2020-03-20 23:00:00 11.6 4 Oeste 8 Oeste 0 1011.5 0.2 86
2020-03-20 22:00:00 11.8 4 Sudoeste 13 Este 0 1011.5 -0.1 85
2020-03-20 21:00:00 12.2 3 Sudoeste 9 Sudoeste 0 1011.4 -0.2 85
2020-03-20 20:00:00 12.3 4 Este 10 Este 0 1011.3 -0.5 85
2020-03-20 19:00:00 12.4 5 Nordeste 9 Nordeste 0 1011.6 -0.4 84
2020-03-20 18:00:00 12.7 3 Nordeste 8 Nordeste 0 1011.6 -0.8 83
2020-03-20 17:00:00 12.7 3 Nordeste 7 Noroeste 0 1011.8 -0.9 83
2020-03-20 16:00:00 12.9 3 Nordeste 7 Nordeste 0 1012 -1 83
2020-03-20 15:00:00 13 3 Nordeste 9 Nordeste 0 1012.4 -0.8 84
2020-03-20 14:00:00 12.6 4 Este 7 Este 0 1012.7 -0.7 84
2020-03-20 13:00:00 12.6 4 Norte 8 Nordeste 0 1013 -0.5 85
2020-03-20 12:00:00 11.9 2 Sudeste 17 Este 0 1013.2 0.2 86
2020-03-20 11:00:00 11.6 0 Calma 13 Oeste 0 1013.4 0.4 87
2020-03-20 10:00:00 11.3 2 Sudoeste 5 Sur 0 1013.5 0.7 88
2020-03-20 09:00:00 10.9 3 Sur 8 Sur 0 1013 0.1 88
2020-03-20 08:00:00 10.8 4 Sur 9 Sudeste 0 1013 0 88
2020-03-20 07:00:00 10.8 5 Sur 15 Este 0 1012.8 -0.5 88
2020-03-20 06:00:00 11 4 Sur 7 Oeste 0 1012.9 -0.8 88
2020-03-20 05:00:00 11.2 3 Sudoeste 7 Oeste 0 1013 -1 88
2020-03-20 04:00:00 11.4 5 Oeste 8 Oeste 0 1013.3 -1 89
2020-03-20 03:00:00 11.5 3 Oeste 8 Oeste 0.2 1013.7 -0.9 89
2020-03-20 02:00:00 11.6 4 Sudoeste 7 Sudoeste 0 1014 -0.9 88
2020-03-20 01:00:00 11.7 2 Oeste 10 Noroeste 0 1014.3 -0.6 88
2020-03-20 00:00:00 11.7 3 Sudoeste 8 Oeste 0 1014.6 -0.4 88
2020-03-19 23:00:00 11.8 3 Sudoeste 6 Sudoeste 0 1014.9 -0.4 88
2020-03-19 22:00:00 11.9 2 Sudoeste 7 Sudeste 0 1014.9 -0.3 87
2020-03-19 21:00:00 12 3 Este 7 Sudeste 0 1015 -0.3 87
2020-03-19 20:00:00 11.9 3 Nordeste 6 Nordeste 0 1015.3 -0.3 87
2020-03-19 19:00:00 12 4 Nordeste 9 Este 0 1015.2 -0.5 87
2020-03-19 18:00:00 12.1 2 Nordeste 9 Este 0 1015.3 -0.9 86
2020-03-19 17:00:00 12.3 5 Este 10 Este 0 1015.6 -1.3 86
2020-03-19 16:00:00 12.6 5 Este 10 Nordeste 0 1015.7 -2 85
2020-03-19 15:00:00 12.8 3 Este 10 Norte 0 1016.2 -2.1 85
2020-03-19 14:00:00 12.7 4 Nordeste 8 Nordeste 0 1016.9 -1.8 86
2020-03-19 13:00:00 12.1 3 Nordeste 7 Nordeste 0 1017.7 -1.3 87
2020-03-19 12:00:00 11.8 4 Norte 8 Noroeste 0 1018.3 -0.6 88
2020-03-19 11:00:00 11.5 3 Oeste 7 Sur 0 1018.7 -0.2 88
2020-03-19 10:00:00 11.1 3 Sudoeste 9 Sur 0 1019 -0.1 88
2020-03-19 09:00:00 10.9 4 Sudoeste 10 Sudoeste 0 1018.9 -0.6 89
2020-03-19 08:00:00 10.9 5 Sudoeste 11 Sudoeste 0 1018.9 -0.7 88
2020-03-19 07:00:00 11 3 Oeste 10 Sudoeste 0 1019.1 -0.7 88
2020-03-19 06:00:00 11.1 5 Sudoeste 10 Este 0 1019.5 -0.9 88
2020-03-19 05:00:00 11.1 5 Sudoeste 11 Sudoeste 0 1019.6 -1.5 88
2020-03-19 04:00:00 11.2 7 Sudoeste 12 Sudoeste 0 1019.8 -1.5 88
2020-03-19 03:00:00 11.5 5 Oeste 11 Oeste 0 1020.4 -1.2 88
2020-03-19 02:00:00 11.7 4 Oeste 10 Oeste 0 1021.1 -0.8 87
2020-03-19 01:00:00 11.9 4 Oeste 10 Oeste 0 1021.3 -0.8 86
2020-03-19 00:00:00 12.2 3 Nordeste 8 Este 0 1021.6 -0.7 86
2020-03-18 23:00:00 12.4 3 Nordeste 9 Sudeste 0 1021.9 -0.5 85
2020-03-18 22:00:00 12.5 3 Sudeste 8 Este 0 1022.1 -0.4 84
2020-03-18 21:00:00 12.6 2 Sudeste 7 Sudeste 0 1022.3 -0.3 84
2020-03-18 20:00:00 12.7 3 Sur 8 Sudeste 0 1022.4 -0.3 83
2020-03-18 19:00:00 12.7 5 Noroeste 14 Noroeste 0 1022.5 -0.5 83
2020-03-18 18:00:00 13 8 Noroeste 12 Noroeste 0 1022.6 -0.6 81
2020-03-18 17:00:00 13.6 4 Norte 10 Nordeste 0 1022.7 -1.1 80
2020-03-18 16:00:00 13.9 4 Norte 11 Norte 0 1023 -1.5 78
2020-03-18 15:00:00 14.2 6 Norte 10 Norte 0 1023.2 -1.9 77
2020-03-18 14:00:00 14.2 5 Norte 10 Nordeste 0 1023.8 -1.8 77
2020-03-18 13:00:00 14 4 Norte 12 Noroeste 0 1024.5 -1.2 80
2020-03-18 12:00:00 13.2 3 Norte 10 Norte 0 1025.1 -0.5 82
2020-03-18 11:00:00 12.7 5 Noroeste 13 Oeste 0 1025.6 0 83
2020-03-18 10:00:00 12.4 5 Oeste 10 Oeste 0 1025.7 0.3 84
2020-03-18 09:00:00 11.7 5 Oeste 11 Sudoeste 0 1025.6 0.2 86
2020-03-18 08:00:00 10.8 6 Sudoeste 12 Sudoeste 0 1025.6 0.3 86
2020-03-18 07:00:00 10.3 10 Sudoeste 14 Sudoeste 0 1025.4 -0.2 86
2020-03-18 06:00:00 9.8 8 Sudoeste 14 Oeste 0 1025.4 -0.5 86
2020-03-18 05:00:00 9.6 7 Sudoeste 13 Sudoeste 0 1025.3 -0.9 86
2020-03-18 04:00:00 9.7 6 Oeste 13 Oeste 0 1025.6 -0.8 87
2020-03-18 03:00:00 10 8 Sudoeste 12 Oeste 0 1025.9 -1 87
2020-03-18 02:00:00 10.9 7 Oeste 13 Oeste 0 1026.2 -1.1 87
2020-03-18 01:00:00 11.4 10 Oeste 15 Oeste 0 1026.4 -1.2 87
2020-03-18 00:00:00 11.8 7 Oeste 19 Oeste 0 1026.9 -0.8 86
2020-03-17 23:00:00 12.4 5 Oeste 13 Sudoeste 0 1027.3 0 85
2020-03-17 22:00:00 12.4 7 Sudoeste 13 Este 0 1027.6 0.4 84
2020-03-17 21:00:00 12.6 5 Norte 23 Este 0 1027.7 0.5 83
2020-03-17 20:00:00 12.8 15 Este 23 Este 0 1027.3 0.2 83
2020-03-17 19:00:00 12.7 18 Este 25 Este 0 1027.2 0.2 81
2020-03-17 18:00:00 12.7 18 Este 27 Este 0 1027.2 -0.2 81
2020-03-17 17:00:00 12.8 20 Este 30 Este 0 1027.1 -0.8 79
2020-03-17 16:00:00 13 18 Este 28 Este 0 1027 -1.2 79
2020-03-17 15:00:00 13 21 Este 31 Sudeste 0 1027.4 -0.7 77
2020-03-17 14:00:00 13.2 19 Este 30 Este 0 1027.9 -0.2 75
2020-03-17 13:00:00 13.4 19 Este 25 Este 0 1028.2 0 76
2020-03-17 12:00:00 14.3 15 Este 23 Este 0 1028.1 -0.2 71
2020-03-17 11:00:00 13.1 12 Este 20 Este 0 1028.1 0.1 74
2020-03-17 10:00:00 12 10 Este 14 Este 0 1028.2 0.6 78
2020-03-17 09:00:00 10.4 3 Oeste 12 Sudoeste 0 1028.3 1.4 78
2020-03-17 08:00:00 10.1 3 Oeste 11 Sudoeste 0 1028 1.6 79
2020-03-17 07:00:00 10.1 2 Sudoeste 11 Oeste 0 1027.6 1.1 78
2020-03-17 06:00:00 10 4 Oeste 14 Sudeste 0 1026.9 0 77
2020-03-17 05:00:00 10 6 Sudoeste 12 Oeste 0 1026.4 -0.4 76
2020-03-17 04:00:00 10.2 7 Sudoeste 11 Sudoeste 0 1026.5 -0.4 75
2020-03-17 03:00:00 10.4 7 Sudoeste 12 Sudoeste 0 1026.9 -0.1 73
2020-03-17 02:00:00 11 3 Sudeste 26 Nordeste 0 1026.8 0 72
2020-03-17 01:00:00 11 17 Nordeste 29 Nordeste 0 1026.9 0.5 70
2020-03-17 00:00:00 11.3 7 Nordeste 21 Nordeste 0 1027 1.4 68
2020-03-16 23:00:00 11.5 6 Norte 20 Nordeste 0 1026.8 1.9 68
2020-03-16 22:00:00 11.6 9 Nordeste 24 Norte 0 1026.4 2.3 68
2020-03-16 21:00:00 11.5 10 Norte 28 Norte 0 1025.6 2.4 68
2020-03-16 20:00:00 11.6 10 Norte 27 Norte 0 1024.9 1.7 70
2020-03-16 19:00:00 11.7 11 Nordeste 25 Nordeste 0 1024.1 1.5 67
2020-03-16 18:00:00 11.8 9 Norte 27 Nordeste 0 1023.2 1.1 65
2020-03-16 17:00:00 11.9 9 Norte 27 Norte 0 1023.2 1 64
2020-03-16 16:00:00 12.1 8 Norte 29 Noroeste 0 1022.6 0.9 65
2020-03-16 15:00:00 12.7 14 Noroeste 25 Noroeste 0 1022.1 0.6 63
2020-03-16 14:00:00 12 13 Noroeste 26 Noroeste 0 1022.2 1.2 68
2020-03-16 13:00:00 11.2 12 Noroeste 23 Noroeste 0.8 1021.7 1.3 76
2020-03-16 12:00:00 10.6 5 Oeste 19 Sudoeste 0.2 1021.5 2.4 74
2020-03-16 11:00:00 9.6 7 Oeste 22 Oeste 0.4 1021 2.5 79
2020-03-16 10:00:00 8.9 8 Oeste 26 Oeste 0.2 1020.4 2.7 80
2020-03-16 09:00:00 8.3 10 Oeste 22 Noroeste 1 1019.1 2 80
2020-03-16 08:00:00 8.1 8 Oeste 20 Sudoeste 0.2 1018.5 2.4 79
2020-03-16 07:00:00 7.4 10 Sudoeste 26 Oeste 2.2 1017.7 1.3 79
2020-03-16 06:00:00 7.5 13 Oeste 27 Oeste 0 1017.1 0.5 77
2020-03-16 05:00:00 7.1 11 Sudoeste 27 Oeste 0.2 1016.1 0 78
2020-03-16 04:00:00 7 7 Oeste 21 Sudoeste 0.4 1016.4 0.6 81
2020-03-16 03:00:00 6.4 13 Sudoeste 24 Oeste 0.6 1016.6 0.7 80
2020-03-16 02:00:00 6.3 10 Oeste 26 Sudoeste 0.8 1016.1 0.5 80
2020-03-16 01:00:00 6.7 10 Oeste 26 Oeste 0.8 1015.8 0.5 80
2020-03-16 00:00:00 6.7 11 Sudoeste 32 Sudoeste 0.4 1015.9 0.8 79
2020-03-15 23:00:00 6.6 11 Oeste 27 Oeste 1 1015.6 0.6 82
2020-03-15 22:00:00 7.8 12 Oeste 24 Oeste 0.4 1015.3 1 82
2020-03-15 21:00:00 7.9 8 Oeste 28 Oeste 0.6 1015.1 1.4 83
2020-03-15 20:00:00 8 17 Oeste 38 Oeste 2.4 1015 2 85
2020-03-15 19:00:00 8.6 15 Oeste 30 Oeste 2.2 1014.3 2.6 85
2020-03-15 18:00:00 9.1 15 Oeste 39 Noroeste 3 1013.7 2.9 86
2020-03-15 17:00:00 10.1 25 Noroeste 53 Noroeste 0.8 1013 1.7 84
2020-03-15 16:00:00 13.8 6 Noroeste 15 Noroeste 0 1011.7 -0.3 71
2020-03-15 15:00:00 16.1 9 Este 13 Este 0 1010.8 -1.8 66
2020-03-15 14:00:00 16 6 Este 14 Sudoeste 0 1011.3 -1.4 63
2020-03-15 13:00:00 13.3 6 Oeste 19 Oeste 0 1012 -0.9 70
2020-03-15 12:00:00 12.9 9 Oeste 22 Oeste 0 1012.6 -0.2 73
2020-03-15 11:00:00 13 13 Noroeste 35 Oeste 0 1012.7 0.2 72
2020-03-15 10:00:00 12.6 14 Oeste 40 Noroeste 0 1012.9 1.2 75
2020-03-15 09:00:00 10.7 11 Oeste 22 Noroeste 0 1012.8 1.4 81
2020-03-15 08:00:00 8.2 9 Oeste 18 Sudoeste 0 1012.5 0.7 85
2020-03-15 07:00:00 7.2 12 Sudoeste 17 Sudoeste 0 1011.7 -1.2 85
2020-03-15 06:00:00 7.3 8 Sudoeste 13 Sudoeste 0 1011.4 -2.6 84
2020-03-15 05:00:00 8.1 9 Sudoeste 17 Sudoeste 0 1011.8 -3.3 85
2020-03-15 04:00:00 7.8 11 Sudoeste 15 Sudoeste 0 1012.9 -3.1 85
2020-03-15 03:00:00 8.3 6 Sudoeste 15 Sudoeste 0 1014 -2.8 83
2020-03-15 02:00:00 8.5 11 Sudoeste 15 Sudoeste 0 1015.1 -2.5 83
2020-03-15 01:00:00 8.6 10 Sudoeste 14 Sudoeste 0 1016 -2.3 83
2020-03-15 00:00:00 9.2 8 Sudoeste 14 Sudoeste 0 1016.8 -2 81
2020-03-14 23:00:00 9.7 9 Sudoeste 14 Sudoeste 0 1017.6 -1.8 80
2020-03-14 22:00:00 10.7 4 Sudoeste 13 Sur 0 1018.3 -1.5 77
2020-03-14 21:00:00 11 7 Sur 26 Este 0 1018.8 -1.2 76
2020-03-14 20:00:00 12.1 12 Sudeste 22 Este 0 1019.4 -0.8 75
2020-03-14 19:00:00 12.6 14 Sudeste 23 Este 0 1019.8 -0.8 73
2020-03-14 18:00:00 13.1 14 Este 23 Este 0 1020 -1.2 69
2020-03-14 17:00:00 14 13 Este 18 Este 0 1020.2 -1.8 63
2020-03-14 16:00:00 14.7 11 Este 17 Este 0 1020.6 -2.1 61
2020-03-14 15:00:00 14.8 9 Este 13 Nordeste 0 1021.2 -1.9 61
2020-03-14 14:00:00 14.5 6 Nordeste 15 Nordeste 0 1022 -1.4 63
2020-03-14 13:00:00 13.9 8 Nordeste 12 Nordeste 0 1022.7 -0.7 62
2020-03-14 12:00:00 13.7 7 Noroeste 16 Noroeste 0 1023.1 0.1 62
2020-03-14 11:00:00 13.7 9 Noroeste 16 Noroeste 0 1023.4 0.7 62
2020-03-14 10:00:00 13.3 4 Oeste 10 Oeste 0 1023.4 1 64
2020-03-14 09:00:00 10.7 5 Sudoeste 11 Sudoeste 0 1023 0.8 77
2020-03-14 08:00:00 9.7 7 Sudoeste 11 Sudoeste 0 1022.7 0.9 79
2020-03-14 07:00:00 10 6 Sudoeste 10 Sudoeste 0 1022.4 0.4 80
2020-03-14 06:00:00 10 6 Sudoeste 10 Oeste 0 1022.2 -0.5 80
2020-03-14 05:00:00 10.2 5 Sudoeste 13 Sudoeste 0 1021.8 -0.9 80
2020-03-14 04:00:00 10.4 6 Sudoeste 11 Sudoeste 0 1022 -1 79
2020-03-14 03:00:00 10.3 6 Sudoeste 10 Sudoeste 0 1022.7 -0.4 79
2020-03-14 02:00:00 10.5 5 Oeste 10 Sudoeste 0 1022.7 -0.2 78
2020-03-14 01:00:00 10.2 6 Oeste 13 Oeste 0 1023 -0.1 79
2020-03-14 00:00:00 10.1 8 Oeste 14 Sudoeste 0 1023.1 0.8 79
2020-03-13 23:00:00 10.2 2 Sudoeste 13 Sudoeste 0 1022.9 0.7 78
2020-03-13 22:00:00 9.4 9 Sudoeste 17 Sudoeste 0 1023.1 1.8 80
2020-03-13 21:00:00 9.9 5 Sudoeste 13 Este 0 1022.3 0.3 76
2020-03-13 20:00:00 10.6 8 Sur 25 Este 0 1022.2 -0.3 74
2020-03-13 19:00:00 11.7 14 Este 25 Este 0 1021.3 -1.5 73
2020-03-13 18:00:00 12.1 14 Sudeste 26 Este 0 1022 -1.2 71
2020-03-13 17:00:00 12.4 15 Este 24 Este 0 1022.5 -1.1 69
2020-03-13 16:00:00 12.5 17 Este 26 Sudeste 0 1022.8 -1.2 68
2020-03-13 15:00:00 12.4 18 Este 27 Este 0 1023.2 -1 69
2020-03-13 14:00:00 12.3 20 Este 35 Este 0 1023.6 -0.6 69
2020-03-13 13:00:00 12.2 20 Este 31 Este 0 1024 -0.2 71
2020-03-13 12:00:00 12 20 Este 32 Sudeste 0 1024.2 0.4 76
2020-03-13 11:00:00 11.7 18 Sudeste -- -- -- 1024.2 0.4 78
2020-03-13 10:00:00 11.1 15 Sudeste 26 Sudeste 0 1024.2 0.1 83
2020-03-13 09:00:00 10.3 11 Sudeste 22 Sudeste 0.2 1023.8 -0.5 86
2020-03-13 08:00:00 9.7 10 Sur 24 Sur 0 1023.8 -0.5 89
2020-03-13 07:00:00 10 17 Sudeste 32 Este 0.6 1024.1 -0.4 89
2020-03-13 06:00:00 10.1 12 Sudeste 18 Sudeste 1.2 1024.3 -0.5 90
2020-03-13 05:00:00 10.1 8 Sudeste 17 Este 0.4 1024.3 -0.8 89
2020-03-13 04:00:00 10.1 12 Este 23 Este 0.4 1024.5 -0.6 89
2020-03-13 03:00:00 10.3 11 Nordeste 22 Nordeste 0.2 1024.8 -0.4 89
2020-03-13 02:00:00 10.2 15 Nordeste 24 Nordeste 1.2 1025.1 0.1 90
2020-03-13 01:00:00 10.6 10 Este 26 Nordeste 0.4 1025.1 0.2 89
2020-03-13 00:00:00 10.5 13 Nordeste 26 Nordeste 0.8 1025.2 0.5 89
2020-03-12 23:00:00 10.9 10 Sudeste 19 Sudeste 1.2 1025 0.7 89
2020-03-12 22:00:00 11 12 Este 25 Nordeste 1.2 1024.9 1.4 89
2020-03-12 21:00:00 11.1 14 Nordeste 23 Nordeste 1.4 1024.7 1.4 88
2020-03-12 20:00:00 11.3 5 Oeste 12 Sudoeste 0.4 1024.3 1.5 87
2020-03-12 19:00:00 11.3 7 Sudoeste 18 Sudoeste 0.2 1023.5 1 87
2020-03-12 18:00:00 11.7 5 Oeste 28 Noroeste 0.2 1023.3 0.4 86
2020-03-12 17:00:00 12.5 9 Oeste 19 Oeste 0 1022.8 -0.2 80
2020-03-12 16:00:00 12.6 11 Sudoeste 21 Sudoeste 0 1022.5 -0.6 82
2020-03-12 15:00:00 12.3 7 Sudoeste 22 Noroeste 0.2 1022.9 -0.3 85
2020-03-12 14:00:00 12.2 18 Noroeste 32 Noroeste 0 1023 0 86
2020-03-12 13:00:00 13.8 4 Noroeste 9 Oeste 0 1023.1 0.2 84
2020-03-12 12:00:00 13.9 4 Oeste 11 Oeste 0 1023.2 0.8 83
2020-03-12 11:00:00 13.3 7 Sudoeste 18 Oeste 0 1023 1.1 85
2020-03-12 10:00:00 12.8 9 Sudoeste 15 Sudoeste 0 1022.9 1.2 87
2020-03-12 09:00:00 12.7 7 Sudoeste 9 Sudoeste 0 1022.4 0.8 86
2020-03-12 08:00:00 12.6 7 Sudoeste 12 Sudoeste 0 1021.9 0.7 86
2020-03-12 07:00:00 12.7 6 Sudoeste 10 Sudoeste 0 1021.7 0.4 84
2020-03-12 06:00:00 12.8 3 Oeste 11 Sudoeste 0 1021.6 -0.3 84
2020-03-12 05:00:00 12.9 3 Noroeste 15 Noroeste 0 1021.2 -0.8 84
2020-03-12 04:00:00 13.1 2 Noroeste 16 Nordeste 0 1021.3 -0.8 84
2020-03-12 03:00:00 12.9 0 Calma 12 Este 0 1021.9 -0.5 84
2020-03-12 02:00:00 12.8 5 Sudoeste 14 Oeste 0 1022 -0.4 84
2020-03-12 01:00:00 13.1 0 Calma 5 Sudoeste 0 1022.1 0.2 84
2020-03-12 00:00:00 12.8 5 Sudoeste 16 Oeste 0 1022.4 0.3 84
2020-03-11 23:00:00 12.1 7 Sudoeste 10 Sudoeste 0 1022.4 0.4 83
2020-03-11 22:00:00 12.2 6 Oeste 12 Sudoeste 0 1021.9 0.6 83
2020-03-11 21:00:00 12.4 8 Sudoeste 9 Sudoeste 0 1022.1 1.1 82
2020-03-11 20:00:00 13.4 0 Calma 3 Este 0 1022 1.3 81
2020-03-11 19:00:00 14.3 2 Este 11 Este 0 1021.3 1.1 79
2020-03-11 18:00:00 15.2 9 Este 15 Este 0 1021 0 76
2020-03-11 17:00:00 15.3 11 Este 31 Sudeste 0 1020.7 -1.1 75
2020-03-11 16:00:00 15.6 17 Este 26 Este 0 1020.2 -2.2 72
2020-03-11 15:00:00 15.9 14 Este 19 Este 0 1021 -1.7 71
2020-03-11 14:00:00 16 12 Este 17 Este 0 1021.8 -1.3 69
2020-03-11 13:00:00 16.1 7 Este 10 Este 0 1022.4 -0.8 71
2020-03-11 12:00:00 15.1 4 Nordeste 9 Este 0 1022.7 -0.6 71
2020-03-11 11:00:00 14.8 2 Nordeste 5 Este 0 1023.1 -0.3 74
2020-03-11 10:00:00 14.1 0 Calma 3 Este 0 1023.2 -0.2 77
2020-03-11 09:00:00 10.7 0 Calma 12 Oeste 0 1023.3 0 82
2020-03-11 08:00:00 8.7 7 Oeste 10 Sudoeste 0 1023.4 0 82
2020-03-11 07:00:00 9 5 Oeste 16 Sudoeste 0 1023.4 -0.3 83
2020-03-11 06:00:00 8.6 7 Sudoeste 13 Sudoeste 0 1023.3 -0.5 82
2020-03-11 05:00:00 9.3 0 Calma 7 Sudoeste 0 1023.4 -0.7 82
2020-03-11 04:00:00 9.3 5 Oeste 16 Oeste 0 1023.7 -0.8 81
2020-03-11 03:00:00 9.7 8 Sudoeste 13 Oeste 0 1023.8 -1.3 80
2020-03-11 02:00:00 9.5 8 Oeste 12 Sudoeste 0 1024.1 -1.5 79
2020-03-11 01:00:00 10.1 6 Oeste 13 Sudoeste 0 1024.5 -1 77
2020-03-11 00:00:00 10.5 4 Sudoeste 10 Sudoeste 0 1025.1 0 76
2020-03-10 23:00:00 10.6 2 Oeste 23 Sudoeste 0 1025.6 0.8 76
2020-03-10 22:00:00 11.3 4 Oeste 10 Sudoeste 0 1025.5 0.8 79
2020-03-10 21:00:00 11.3 7 Sudoeste 14 Norte 0 1025.1 0.7 79
2020-03-10 20:00:00 12.6 4 Oeste 9 Sudeste 0 1024.8 0.2 78
2020-03-10 19:00:00 13.4 7 Sudeste 23 Este 0 1024.7 -0.2 77
2020-03-10 18:00:00 13.8 18 Este 25 Este 0 1024.4 -0.4 74
2020-03-10 17:00:00 14.6 12 Este 15 Este 0 1024.6 -0.6 69
2020-03-10 16:00:00 15.2 6 Nordeste 11 Nordeste 0 1024.9 -1 67
2020-03-10 15:00:00 15.5 6 Nordeste 10 Nordeste 0 1024.8 -1.4 67
2020-03-10 14:00:00 15.2 4 Nordeste 7 Nordeste 0 1025.2 -0.3 70
2020-03-10 13:00:00 13.8 4 Noroeste 14 Noroeste 0 1025.9 0.2 74
2020-03-10 12:00:00 13.5 5 Noroeste 13 Noroeste 0 1026.2 1.2 75
2020-03-10 11:00:00 14.7 4 Norte 10 Sudoeste 0 1025.5 1.5 75
2020-03-10 10:00:00 12.6 5 Oeste 12 Sudoeste 0 1025.7 1.5 80
2020-03-10 09:00:00 11 8 Sudoeste 11 Sudoeste 0 1025 0.6 82
2020-03-10 08:00:00 11.1 4 Sur 9 Sudoeste 0 1024 -0.5 82
2020-03-10 07:00:00 10.1 3 Sudoeste 11 Oeste 0 1024.2 -0.7 82
2020-03-10 06:00:00 9.8 7 Sudoeste 12 Sudoeste 0 1024.4 -1 81
2020-03-10 05:00:00 10.5 7 Sudoeste 15 Sudoeste 0 1024.5 -1.4 80
2020-03-10 04:00:00 9.6 8 Sudoeste 12 Sudoeste 0 1024.9 -1.1 79
2020-03-10 03:00:00 9.6 9 Sudoeste 13 Sudoeste 0 1025.4 -0.5 78
2020-03-10 02:00:00 9.4 5 Sudoeste 14 Oeste 0 1025.9 -0.8 78
2020-03-10 01:00:00 9.8 7 Sudoeste 15 Sudoeste 0 1026 -1 76
2020-03-10 00:00:00 10.8 3 Sur 8 Sudoeste 0 1025.9 -1.4 74
2020-03-09 23:00:00 11.7 0 Calma 8 Sudoeste 0 1026.7 -0.7 72
2020-03-09 22:00:00 11.6 6 Sudoeste 9 Sudoeste 0 1027 0 71
2020-03-09 21:00:00 11.9 4 Sudoeste 10 Sudoeste 0 1027.3 0.6 71
2020-03-09 20:00:00 12.4 5 Sudoeste 13 Oeste 0 1027.4 0.8 70
2020-03-09 19:00:00 12.9 8 Oeste 27 Noroeste 0 1027 -0.1 69
2020-03-09 18:00:00 13.8 13 Noroeste 28 Noroeste 0 1026.7 -0.7 66
2020-03-09 17:00:00 14 15 Noroeste 37 Noroeste 0 1026.6 -1.2 65
2020-03-09 16:00:00 14.2 21 Noroeste 37 Oeste 0 1027.1 -1.3 62
2020-03-09 15:00:00 14.3 20 Noroeste 36 Noroeste 0 1027.4 -1.6 61
2020-03-09 14:00:00 14.1 18 Noroeste 34 Noroeste 0 1027.8 -0.6 61
2020-03-09 13:00:00 13.8 23 Noroeste 38 Noroeste 0 1028.4 0.1 62
2020-03-09 12:00:00 13.9 17 Noroeste 37 Noroeste 0 1029 1.7 57
2020-03-09 11:00:00 13.8 18 Noroeste 33 Oeste 0 1028.4 1.9 52
2020-03-09 10:00:00 13.1 13 Oeste 27 Oeste 0 1028.3 1.8 56
2020-03-09 09:00:00 12 17 Oeste 34 Oeste 0 1027.3 0.8 57
2020-03-09 08:00:00 11.7 17 Oeste 33 Noroeste 0 1026.5 0.7 60
2020-03-09 07:00:00 11.6 14 Oeste 27 Noroeste 0 1026.5 0.8 64
2020-03-09 06:00:00 11.5 14 Oeste 30 Oeste 0 1026.5 0.5 66
2020-03-09 05:00:00 11.5 14 Noroeste 29 Oeste 0 1025.8 0.1 67
2020-03-09 04:00:00 11.6 15 Oeste 35 Noroeste 0 1025.7 0 67
2020-03-09 03:00:00 11.8 16 Oeste 31 Oeste 0 1026 0.1 66
2020-03-09 02:00:00 11.5 14 Oeste 42 Noroeste 0 1025.7 0.1 69
2020-03-09 01:00:00 11.6 21 Oeste 46 Oeste 0 1025.7 1.1 69
2020-03-09 00:00:00 10.9 26 Noroeste 55 Oeste 0.4 1025.9 1.5 78